createdAt,value
2024-04-23T00:00:44.587Z,10.86
2024-04-23T00:03:11.728Z,10.81
2024-04-23T00:05:38.684Z,10.74
2024-04-23T00:08:05.914Z,10.73
2024-04-23T00:10:32.997Z,10.69
2024-04-23T00:13:00.043Z,10.69
2024-04-23T00:15:27.055Z,10.69
2024-04-23T00:17:54.005Z,10.75
2024-04-23T00:20:21.088Z,10.79
2024-04-23T00:22:48.006Z,10.81
2024-04-23T00:25:15.012Z,10.84
2024-04-23T00:27:41.952Z,10.83
2024-04-23T00:30:09.269Z,10.82
2024-04-23T00:32:36.284Z,10.84
2024-04-23T00:35:03.511Z,10.85
2024-04-23T00:37:30.521Z,10.86
2024-04-23T00:39:57.443Z,10.86
2024-04-23T00:42:24.493Z,10.84
2024-04-23T00:44:54.249Z,10.85
2024-04-23T00:47:22.393Z,10.87
2024-04-23T00:49:50.927Z,10.87
2024-04-23T00:52:18.422Z,10.91
2024-04-23T00:54:45.591Z,10.92
2024-04-23T00:57:12.764Z,10.92
2024-04-23T00:59:39.669Z,10.93
2024-04-23T01:02:07.195Z,10.83
2024-04-23T01:04:34.301Z,10.93
2024-04-23T01:07:01.774Z,10.98
2024-04-23T01:09:28.833Z,10.95
2024-04-23T01:11:55.811Z,10.93
2024-04-23T01:14:23.029Z,10.91
2024-04-23T01:16:51.421Z,10.86
2024-04-23T01:19:39.258Z,10.85
2024-04-23T01:22:24.082Z,10.86
2024-04-23T01:25:20.641Z,10.83
2024-04-23T01:27:48.860Z,10.83
2024-04-23T01:30:18.062Z,10.85
2024-04-23T01:32:47.513Z,10.82
2024-04-23T01:35:17.039Z,10.82
2024-04-23T01:37:48.383Z,10.82
2024-04-23T01:40:15.769Z,10.77
2024-04-23T01:42:43.230Z,10.78
2024-04-23T01:45:13.345Z,10.76
2024-04-23T01:47:40.335Z,10.72
2024-04-23T01:50:07.791Z,10.75
2024-04-23T01:52:35.076Z,10.73
2024-04-23T01:55:02.094Z,10.72
2024-04-23T01:57:29.190Z,10.72
2024-04-23T02:00:03.559Z,10.68
2024-04-23T02:02:31.891Z,10.63
2024-04-23T02:05:00.474Z,10.68
2024-04-23T02:07:27.806Z,10.65
2024-04-23T02:09:55.846Z,10.62
2024-04-23T02:12:24.085Z,10.64
2024-04-23T02:14:51.068Z,10.62
2024-04-23T02:17:19.630Z,10.61
2024-04-23T02:19:46.634Z,10.59
2024-04-23T02:22:13.598Z,10.60
2024-04-23T02:24:40.484Z,10.58
2024-04-23T02:27:07.744Z,10.61
2024-04-23T02:29:34.681Z,10.63
2024-04-23T02:32:05.719Z,10.67
2024-04-23T02:34:32.655Z,10.63
2024-04-23T02:36:59.671Z,10.66
2024-04-23T02:39:26.603Z,10.66
2024-04-23T02:41:54.573Z,10.65
2024-04-23T02:44:21.923Z,10.69
2024-04-23T02:46:48.884Z,10.71
2024-04-23T02:49:15.767Z,10.70
2024-04-23T02:51:49.416Z,10.73
2024-04-23T02:54:16.317Z,10.68
2024-04-23T02:56:44.849Z,10.70
2024-04-23T02:59:11.950Z,10.70
2024-04-23T03:01:38.988Z,10.70
2024-04-23T03:04:06.191Z,10.68
2024-04-23T03:06:33.094Z,10.70
2024-04-23T03:09:00.092Z,10.66
2024-04-23T03:11:27.070Z,10.68
2024-04-23T03:13:54.055Z,10.67
2024-04-23T03:16:20.920Z,10.66
2024-04-23T03:18:47.887Z,10.67
2024-04-23T03:21:14.863Z,10.64
2024-04-23T03:23:41.796Z,10.65
2024-04-23T03:26:08.711Z,10.65
2024-04-23T03:28:35.962Z,10.65
2024-04-23T03:31:02.851Z,10.63
2024-04-23T03:33:29.726Z,10.66
2024-04-23T03:35:56.746Z,10.64
2024-04-23T03:38:23.707Z,10.66
2024-04-23T03:40:50.699Z,10.67
2024-04-23T03:43:17.621Z,10.68
2024-04-23T03:45:44.506Z,10.69
2024-04-23T03:48:11.583Z,10.65
2024-04-23T03:50:38.608Z,10.67
2024-04-23T03:53:05.622Z,10.66
2024-04-23T03:55:32.506Z,10.66
2024-04-23T03:58:00.722Z,10.65
2024-04-23T04:00:29.042Z,10.65
2024-04-23T04:03:14.686Z,10.65
2024-04-23T04:06:00.258Z,10.68
2024-04-23T04:08:27.257Z,10.65
2024-04-23T04:10:54.229Z,10.63
2024-04-23T04:13:23.968Z,10.61
2024-04-23T04:15:52.313Z,10.61
2024-04-23T04:18:20.208Z,10.63
2024-04-23T04:20:47.766Z,10.59
2024-04-23T04:23:14.658Z,10.56
2024-04-23T04:25:41.579Z,10.54
2024-04-23T04:28:08.488Z,10.52
2024-04-23T04:30:35.385Z,10.49
2024-04-23T04:33:02.422Z,10.47
2024-04-23T04:35:29.384Z,10.45
2024-04-23T04:37:56.938Z,10.41
2024-04-23T04:40:24.061Z,10.41
2024-04-23T04:42:52.596Z,10.38
2024-04-23T04:45:19.689Z,10.40
2024-04-23T04:47:50.841Z,10.40
2024-04-23T04:50:20.746Z,10.40
2024-04-23T04:52:47.818Z,10.32
2024-04-23T04:55:14.891Z,10.25
2024-04-23T04:57:41.869Z,10.30
2024-04-23T05:00:12.304Z,10.24
2024-04-23T05:02:39.529Z,10.34
2024-04-23T05:05:06.722Z,10.34
2024-04-23T05:07:33.653Z,10.32
2024-04-23T05:10:00.634Z,10.32
2024-04-23T05:12:28.298Z,10.36
2024-04-23T05:14:55.292Z,10.32
2024-04-23T05:17:22.428Z,10.32
2024-04-23T05:19:49.380Z,10.32
2024-04-23T05:22:16.445Z,10.33
2024-04-23T05:24:43.385Z,10.29
2024-04-23T05:27:10.269Z,10.30
2024-04-23T05:29:37.223Z,10.28
2024-04-23T05:32:24.923Z,10.29
2024-04-23T05:34:53.397Z,10.30
2024-04-23T05:37:20.280Z,10.32
2024-04-23T05:39:47.271Z,10.32
2024-04-23T05:42:14.385Z,10.33
2024-04-23T05:44:41.349Z,10.32
2024-04-23T05:47:08.416Z,10.33
2024-04-23T05:50:13.099Z,10.29
2024-04-23T05:53:18.071Z,10.25
2024-04-23T05:55:47.691Z,10.24
2024-04-23T05:58:16.010Z,10.19
2024-04-23T06:00:43.015Z,10.20
2024-04-23T06:03:10.021Z,10.15
2024-04-23T06:05:37.042Z,10.17
2024-04-23T06:08:04.136Z,10.13
2024-04-23T06:10:31.210Z,10.16
2024-04-23T06:12:58.089Z,10.19
2024-04-23T06:15:26.314Z,10.23
2024-04-23T06:17:53.318Z,10.24
2024-04-23T06:20:20.221Z,10.25
2024-04-23T06:22:50.597Z,10.19
2024-04-23T06:25:17.866Z,10.25
2024-04-23T06:27:44.973Z,10.25
2024-04-23T06:30:16.303Z,10.27
2024-04-23T06:32:43.503Z,10.27
2024-04-23T06:35:11.517Z,10.27
2024-04-23T06:37:39.068Z,10.28
2024-04-23T06:40:10.375Z,10.29
2024-04-23T06:42:38.995Z,10.21
2024-04-23T06:45:06.469Z,10.25
2024-04-23T06:47:35.086Z,10.26
2024-04-23T06:50:02.399Z,10.24
2024-04-23T06:52:29.667Z,10.27
2024-04-23T06:54:56.726Z,10.30
2024-04-23T06:57:24.039Z,10.36
2024-04-23T06:59:51.049Z,10.34
2024-04-23T07:02:18.212Z,10.40
2024-04-23T07:04:45.566Z,10.46
2024-04-23T07:07:12.487Z,10.45
2024-04-23T07:09:39.369Z,10.46
2024-04-23T07:12:06.724Z,10.50
2024-04-23T07:14:33.676Z,10.52
2024-04-23T07:17:00.636Z,10.53
2024-04-23T07:19:27.560Z,10.57
2024-04-23T07:21:54.464Z,10.58
2024-04-23T07:24:21.364Z,10.50
2024-04-23T07:26:53.234Z,10.58
2024-04-23T07:29:20.252Z,10.46
2024-04-23T07:31:47.348Z,10.52
2024-04-23T07:34:14.244Z,10.51
2024-04-23T07:36:44.408Z,10.55
2024-04-23T07:39:14.723Z,10.65
2024-04-23T07:41:42.156Z,10.74
2024-04-23T07:44:09.349Z,10.83
2024-04-23T07:46:36.404Z,10.83
2024-04-23T07:49:03.441Z,10.81
2024-04-23T07:51:32.417Z,10.77
2024-04-23T07:53:59.538Z,10.79
2024-04-23T07:56:26.400Z,10.78
2024-04-23T07:58:53.321Z,10.85
2024-04-23T08:01:20.333Z,10.81
2024-04-23T08:03:47.346Z,10.81
2024-04-23T08:06:14.255Z,10.96
2024-04-23T08:08:41.245Z,11.03
2024-04-23T08:11:08.373Z,11.03
2024-04-23T08:13:35.373Z,10.99
2024-04-23T08:16:02.286Z,11.08
2024-04-23T08:18:30.172Z,11.14
2024-04-23T08:20:57.102Z,11.22
2024-04-23T08:23:23.941Z,11.22
2024-04-23T08:25:51.013Z,11.26
2024-04-23T08:28:17.993Z,11.39
2024-04-23T08:30:47.643Z,11.49
2024-04-23T08:33:14.728Z,11.46
2024-04-23T08:35:43.182Z,11.44
2024-04-23T08:38:10.374Z,11.56
2024-04-23T08:40:37.380Z,11.60
2024-04-23T08:43:13.937Z,11.48
2024-04-23T08:45:41.748Z,11.62
2024-04-23T08:48:09.186Z,11.65
2024-04-23T08:50:36.945Z,11.66
2024-04-23T08:53:04.755Z,11.67
2024-04-23T08:55:34.322Z,11.74
2024-04-23T08:58:01.596Z,11.68
2024-04-23T09:00:32.794Z,11.79
2024-04-23T09:03:04.155Z,11.93
2024-04-23T09:05:31.802Z,12.22
2024-04-23T09:07:59.914Z,12.41
2024-04-23T09:10:28.356Z,12.77
2024-04-23T09:12:55.357Z,13.15
2024-04-23T09:15:22.475Z,13.11
2024-04-23T09:17:59.163Z,12.98
2024-04-23T09:20:26.426Z,13.07
2024-04-23T09:22:54.327Z,12.92
2024-04-23T09:25:21.901Z,13.01
2024-04-23T09:27:49.171Z,13.01
2024-04-23T09:30:31.388Z,13.12
2024-04-23T09:33:05.320Z,13.05
2024-04-23T09:35:32.436Z,13.14
2024-04-23T09:37:59.353Z,13.19
2024-04-23T09:40:26.439Z,13.29
2024-04-23T09:42:56.474Z,13.38
2024-04-23T09:45:26.879Z,13.25
2024-04-23T09:47:53.948Z,13.33
2024-04-23T09:50:23.958Z,13.48
2024-04-23T09:52:50.835Z,13.34
2024-04-23T09:55:18.098Z,13.45
2024-04-23T09:57:45.565Z,13.47
2024-04-23T10:00:12.921Z,13.33
2024-04-23T10:02:41.018Z,13.30
2024-04-23T10:05:10.724Z,13.33
2024-04-23T10:08:10.253Z,13.43
2024-04-23T10:10:52.939Z,13.65
2024-04-23T10:13:24.894Z,13.74
2024-04-23T10:15:57.883Z,14.21
2024-04-23T10:18:34.564Z,14.22
2024-04-23T10:21:07.074Z,14.29
2024-04-23T10:23:36.611Z,14.10
2024-04-23T10:26:03.643Z,14.17
2024-04-23T10:28:30.720Z,14.44
2024-04-23T10:30:57.691Z,14.45
2024-04-23T10:33:25.031Z,14.55
2024-04-23T10:35:52.882Z,14.88
2024-04-23T10:38:22.290Z,15.13
2024-04-23T10:40:56.670Z,15.20
2024-04-23T10:43:26.998Z,15.47
2024-04-23T10:45:53.943Z,15.47
2024-04-23T10:48:28.893Z,15.15
2024-04-23T10:50:59.838Z,15.39
2024-04-23T10:53:26.850Z,15.57
2024-04-23T10:55:53.872Z,16.27
2024-04-23T10:58:21.723Z,16.53
2024-04-23T11:00:59.225Z,16.68
2024-04-23T11:03:30.931Z,17.45
2024-04-23T11:05:59.061Z,17.78
2024-04-23T11:08:29.478Z,18.22
2024-04-23T11:10:59.222Z,16.79
2024-04-23T11:13:30.771Z,16.76
2024-04-23T11:16:05.051Z,16.12
2024-04-23T11:18:46.380Z,15.67
2024-04-23T11:21:23.297Z,15.19
2024-04-23T11:23:51.379Z,15.88
2024-04-23T11:26:21.299Z,16.17
2024-04-23T11:28:48.846Z,16.90
2024-04-23T11:31:16.147Z,16.79
2024-04-23T11:33:43.804Z,16.82
2024-04-23T11:36:13.355Z,16.70
2024-04-23T11:38:44.435Z,16.98
2024-04-23T11:41:18.339Z,16.84
2024-04-23T11:43:47.184Z,17.31
2024-04-23T11:46:17.533Z,17.50
2024-04-23T11:48:45.266Z,17.25
2024-04-23T11:51:15.583Z,17.07
2024-04-23T11:53:43.373Z,17.33
2024-04-23T11:56:10.682Z,17.27
2024-04-23T11:58:41.542Z,17.56
2024-04-23T12:01:10.062Z,17.83
2024-04-23T12:03:38.423Z,17.71
2024-04-23T12:06:07.200Z,17.40
2024-04-23T12:08:36.025Z,17.74
2024-04-23T12:11:04.564Z,17.82
2024-04-23T12:13:31.695Z,17.67
2024-04-23T12:16:02.367Z,17.64
2024-04-23T12:18:29.709Z,18.08
2024-04-23T12:20:56.676Z,18.49
2024-04-23T12:23:24.753Z,18.37
2024-04-23T12:25:54.014Z,18.51
2024-04-23T12:28:22.656Z,17.88
2024-04-23T12:30:50.385Z,17.90
2024-04-23T12:33:17.809Z,18.08
2024-04-23T12:35:45.095Z,18.38
2024-04-23T12:38:13.065Z,18.56
2024-04-23T12:40:43.710Z,19.00
2024-04-23T12:43:12.113Z,18.71
2024-04-23T12:45:39.436Z,18.42
2024-04-23T12:48:06.729Z,18.47
2024-04-23T12:50:33.966Z,18.80
2024-04-23T12:53:00.980Z,18.20
2024-04-23T12:55:29.369Z,18.40
2024-04-23T12:57:56.501Z,18.13
2024-04-23T13:00:23.568Z,17.98
2024-04-23T13:02:50.554Z,18.01
2024-04-23T13:05:17.535Z,18.74
2024-04-23T13:07:44.476Z,18.88
2024-04-23T13:10:13.822Z,19.34
2024-04-23T13:12:40.767Z,20.00
2024-04-23T13:15:07.834Z,19.98
2024-04-23T13:17:35.509Z,19.95
2024-04-23T13:20:03.413Z,19.42
2024-04-23T13:22:30.308Z,19.37
2024-04-23T13:24:57.211Z,19.76
2024-04-23T13:27:24.148Z,20.28
2024-04-23T13:29:51.749Z,19.20
2024-04-23T13:32:19.133Z,19.35
2024-04-23T13:34:46.370Z,19.23
2024-04-23T13:37:13.226Z,19.00
2024-04-23T13:39:40.389Z,19.04
2024-04-23T13:42:07.494Z,19.55
2024-04-23T13:44:35.229Z,19.01
2024-04-23T13:47:02.708Z,18.85
2024-04-23T13:49:29.621Z,18.68
2024-04-23T13:51:56.531Z,18.83
2024-04-23T13:54:23.414Z,19.05
2024-04-23T13:56:50.197Z,19.40
2024-04-23T13:59:19.229Z,19.44
2024-04-23T14:01:46.269Z,18.79
2024-04-23T14:04:13.314Z,18.91
2024-04-23T14:06:40.251Z,18.95
2024-04-23T14:09:07.168Z,19.38
2024-04-23T14:11:34.519Z,18.68
2024-04-23T14:14:01.669Z,18.66
2024-04-23T14:16:29.800Z,18.64
2024-04-23T14:18:56.917Z,18.62
2024-04-23T14:21:23.824Z,18.75
2024-04-23T14:23:50.706Z,18.60
2024-04-23T14:26:18.958Z,18.48
2024-04-23T14:28:46.195Z,18.68
2024-04-23T14:31:13.506Z,18.65
2024-04-23T14:33:46.312Z,18.83
2024-04-23T14:36:14.129Z,18.59
2024-04-23T14:38:41.614Z,18.68
2024-04-23T14:41:08.958Z,18.51
2024-04-23T14:43:36.262Z,18.36
2024-04-23T14:46:13.512Z,18.55
2024-04-23T14:48:41.395Z,18.82
2024-04-23T14:51:09.215Z,18.92
2024-04-23T14:53:36.203Z,18.99
2024-04-23T14:56:04.856Z,19.13
2024-04-23T14:58:33.369Z,19.11
2024-04-23T15:01:00.916Z,18.95
2024-04-23T15:03:31.271Z,18.80
2024-04-23T15:05:58.255Z,18.15
2024-04-23T15:08:25.994Z,18.31
2024-04-23T15:10:57.644Z,18.42
2024-04-23T15:13:26.150Z,18.62
2024-04-23T15:16:04.474Z,18.70
2024-04-23T15:18:38.751Z,18.60
2024-04-23T15:21:08.749Z,18.53
2024-04-23T15:23:36.462Z,18.32
2024-04-23T15:26:04.881Z,18.35
2024-04-23T15:28:33.774Z,18.56
2024-04-23T15:31:04.945Z,18.38
2024-04-23T15:33:36.003Z,18.33
2024-04-23T15:36:09.765Z,18.56
2024-04-23T15:38:39.920Z,18.69
2024-04-23T15:41:15.125Z,18.71
2024-04-23T15:43:42.177Z,18.67
2024-04-23T15:46:15.201Z,18.38
2024-04-23T15:48:42.621Z,18.45
2024-04-23T15:51:11.091Z,18.57
2024-04-23T15:53:37.997Z,18.65
2024-04-23T15:56:05.886Z,18.21
2024-04-23T15:58:32.857Z,18.47
2024-04-23T16:01:17.873Z,18.73
2024-04-23T16:03:45.634Z,18.68
2024-04-23T16:06:16.784Z,18.46
2024-04-23T16:08:43.720Z,18.38
2024-04-23T16:11:10.996Z,18.36
2024-04-23T16:13:39.519Z,18.39
2024-04-23T16:16:06.814Z,18.34
2024-04-23T16:18:36.943Z,18.32
2024-04-23T16:21:08.004Z,18.30
2024-04-23T16:23:35.626Z,18.38
2024-04-23T16:26:04.141Z,18.35
2024-04-23T16:28:31.115Z,18.35
2024-04-23T16:31:06.321Z,18.44
2024-04-23T16:33:34.747Z,18.15
2024-04-23T16:36:02.352Z,17.93
2024-04-23T16:38:30.054Z,17.62
2024-04-23T16:41:00.972Z,17.45
2024-04-23T16:43:28.298Z,17.40
2024-04-23T16:45:55.184Z,17.28
2024-04-23T16:48:22.210Z,17.17
2024-04-23T16:50:53.793Z,17.16
2024-04-23T16:53:21.608Z,17.35
2024-04-23T16:55:48.674Z,17.33
2024-04-23T16:58:15.652Z,16.98
2024-04-23T17:00:42.793Z,16.95
2024-04-23T17:03:09.850Z,16.90
2024-04-23T17:05:36.782Z,17.04
2024-04-23T17:08:03.984Z,17.00
2024-04-23T17:10:30.996Z,16.92
2024-04-23T17:13:00.321Z,16.89
2024-04-23T17:15:28.179Z,16.90
2024-04-23T17:17:55.449Z,16.82
2024-04-23T17:20:22.937Z,16.68
2024-04-23T17:22:51.239Z,16.69
2024-04-23T17:25:18.498Z,16.74
2024-04-23T17:27:45.337Z,16.68
2024-04-23T17:30:12.441Z,16.64
2024-04-23T17:32:39.506Z,16.39
2024-04-23T17:35:06.487Z,16.29
2024-04-23T17:37:33.430Z,16.09
2024-04-23T17:40:00.499Z,16.17
2024-04-23T17:42:27.408Z,16.01
2024-04-23T17:44:54.471Z,15.86
2024-04-23T17:47:21.401Z,15.79
2024-04-23T17:49:48.398Z,15.64
2024-04-23T17:52:15.311Z,15.42
2024-04-23T17:54:42.227Z,15.42
2024-04-23T17:57:09.885Z,15.33
2024-04-23T17:59:37.099Z,15.12
2024-04-23T18:02:04.113Z,15.04
2024-04-23T18:04:31.015Z,14.87
2024-04-23T18:06:58.407Z,14.86
2024-04-23T18:09:25.583Z,14.76
2024-04-23T18:11:52.553Z,14.71
2024-04-23T18:14:19.521Z,14.53
2024-04-23T18:16:46.439Z,14.54
2024-04-23T18:19:13.375Z,14.50
2024-04-23T18:21:40.324Z,14.45
2024-04-23T18:24:08.814Z,14.40
2024-04-23T18:26:35.665Z,14.40
2024-04-23T18:29:02.664Z,14.37
2024-04-23T18:31:29.540Z,14.28
2024-04-23T18:33:57.032Z,14.23
2024-04-23T18:36:23.917Z,14.15
2024-04-23T18:38:58.138Z,14.07
2024-04-23T18:41:25.051Z,13.98
2024-04-23T18:43:52.604Z,13.86
2024-04-23T18:46:21.950Z,13.73
2024-04-23T18:48:49.413Z,13.60
2024-04-23T18:51:16.563Z,13.53
2024-04-23T18:53:43.924Z,13.52
2024-04-23T18:56:12.400Z,13.48
2024-04-23T18:58:39.668Z,13.40
2024-04-23T19:01:08.937Z,13.32
2024-04-23T19:03:36.015Z,13.23
2024-04-23T19:06:21.853Z,13.20
2024-04-23T19:08:50.113Z,13.20
2024-04-23T19:11:18.617Z,13.20
2024-04-23T19:13:45.766Z,13.19
2024-04-23T19:16:14.544Z,13.27
2024-04-23T19:18:45.372Z,13.24
2024-04-23T19:21:12.375Z,13.25
2024-04-23T19:23:39.319Z,13.16
2024-04-23T19:26:08.020Z,13.15
2024-04-23T19:28:35.295Z,13.09
2024-04-23T19:31:08.541Z,12.98
2024-04-23T19:33:35.796Z,12.84
2024-04-23T19:36:02.843Z,12.70
2024-04-23T19:38:32.538Z,12.57
2024-04-23T19:41:10.015Z,12.46
2024-04-23T19:43:50.556Z,12.28
2024-04-23T19:46:20.246Z,12.07
2024-04-23T19:48:48.762Z,11.93
2024-04-23T19:51:18.128Z,11.80
2024-04-23T19:53:50.250Z,11.65
2024-04-23T19:56:30.056Z,11.51
2024-04-23T19:58:59.038Z,11.42
2024-04-23T20:01:26.448Z,11.36
2024-04-23T20:03:53.961Z,11.29
2024-04-23T20:06:21.065Z,11.23
2024-04-23T20:08:48.400Z,11.11
2024-04-23T20:11:15.533Z,11.21
2024-04-23T20:13:42.498Z,11.17
2024-04-23T20:16:10.180Z,11.13
2024-04-23T20:18:37.248Z,11.12
2024-04-23T20:21:10.256Z,11.03
2024-04-23T20:23:37.101Z,11.06
2024-04-23T20:26:04.264Z,11.04
2024-04-23T20:28:31.314Z,10.98
2024-04-23T20:31:02.443Z,10.96
2024-04-23T20:33:29.400Z,10.96
2024-04-23T20:36:03.148Z,10.98
2024-04-23T20:38:29.983Z,10.96
2024-04-23T20:40:56.881Z,10.94
2024-04-23T20:43:23.791Z,10.91
2024-04-23T20:45:51.121Z,10.76
2024-04-23T20:48:18.390Z,10.84
2024-04-23T20:50:50.760Z,10.82
2024-04-23T20:53:17.813Z,10.74
2024-04-23T20:55:44.882Z,10.70
2024-04-23T20:58:11.849Z,10.65
2024-04-23T21:00:38.717Z,10.63
2024-04-23T21:03:05.835Z,10.56
2024-04-23T21:05:35.595Z,10.49
2024-04-23T21:08:02.758Z,10.39
2024-04-23T21:10:30.711Z,10.31
2024-04-23T21:12:57.710Z,10.20
2024-04-23T21:15:24.658Z,10.12
2024-04-23T21:17:51.589Z,10.07
2024-04-23T21:20:18.788Z,10.06
2024-04-23T21:22:45.809Z,10.00
2024-04-23T21:25:12.741Z,9.96
2024-04-23T21:27:39.683Z,9.92
2024-04-23T21:30:07.050Z,9.85
2024-04-23T21:32:34.137Z,9.82
2024-04-23T21:35:01.212Z,9.75
2024-04-23T21:37:28.126Z,9.69
2024-04-23T21:39:55.040Z,9.62
2024-04-23T21:42:30.955Z,9.57
2024-04-23T21:45:02.740Z,9.54
2024-04-23T21:47:30.305Z,9.48
2024-04-23T21:49:57.302Z,9.44
2024-04-23T21:54:56.969Z,9.32
2024-04-23T21:57:29.694Z,9.27
2024-04-23T21:59:56.697Z,9.21
2024-04-23T22:02:23.900Z,9.15
2024-04-23T22:04:50.842Z,9.11
2024-04-23T22:07:17.839Z,9.08
2024-04-23T22:09:44.722Z,9.01
2024-04-23T22:12:11.880Z,8.96
2024-04-23T22:14:38.831Z,8.93
2024-04-23T22:17:05.893Z,8.90
2024-04-23T22:19:32.865Z,8.85
2024-04-23T22:21:59.921Z,8.79
2024-04-23T22:24:26.834Z,8.73
2024-04-23T22:26:53.757Z,8.70
2024-04-23T22:29:20.767Z,8.61
2024-04-23T22:31:47.838Z,8.52
2024-04-23T22:34:14.837Z,8.43
2024-04-23T22:36:41.787Z,8.40
2024-04-23T22:39:08.725Z,8.36
2024-04-23T22:41:35.576Z,8.40
2024-04-23T22:44:02.572Z,8.45
2024-04-23T22:46:29.390Z,8.36
2024-04-23T22:48:58.057Z,8.24
2024-04-23T22:51:25.040Z,8.12
2024-04-23T22:53:51.933Z,8.03
2024-04-23T22:56:19.075Z,8.03
2024-04-23T22:58:46.093Z,7.99
2024-04-23T23:01:13.022Z,7.91
2024-04-23T23:03:39.970Z,7.80
2024-04-23T23:06:07.066Z,7.76
2024-04-23T23:08:34.004Z,7.79
2024-04-23T23:11:01.438Z,7.72
2024-04-23T23:13:29.179Z,7.77
2024-04-23T23:15:56.151Z,7.83
2024-04-23T23:18:23.072Z,7.80
2024-04-23T23:20:50.031Z,7.72
2024-04-23T23:23:17.006Z,7.58
2024-04-23T23:25:44.187Z,7.41
2024-04-23T23:28:11.209Z,7.40
2024-04-23T23:30:38.304Z,7.39
2024-04-23T23:33:05.799Z,7.35
2024-04-23T23:35:32.752Z,7.34
2024-04-23T23:37:59.632Z,7.29
2024-04-23T23:40:26.965Z,7.22
2024-04-23T23:42:58.159Z,7.16
2024-04-23T23:45:28.269Z,7.11
2024-04-23T23:47:56.315Z,7.05
2024-04-23T23:50:23.729Z,7.10
2024-04-23T23:52:50.830Z,7.20
2024-04-23T23:55:17.860Z,7.32
2024-04-23T23:57:44.953Z,7.42
